Santee, SC

4:13 PM EDT on May 25, 2015 (GMT -0400)
Santee-Cooper Resort | | Change Station
CLOSE
Current Station
Personal Weather Station
Location: Santee, SC
Elevation: 112 ft
Nearby Weather Stations

Elev 112 ft 33.50 °N, 80.46 °W | Updated 10 minutes ago

Overcast
Overcast
86.7 °F
Feels Like 88 °F
N
3.8
Wind Variable Wind from SSE

Today
High -- | Low -- °F
--% Chance of Precip.
Yesterday
High -- | Low -- °F
Precip. -- in
6:15 AM 8:22 PM
Waxing Crescent, 51% visible
Pressure 30.27 in
Visibility 7.0 miles
Clouds Scattered Clouds 4300 ft
Overcast 6500 ft
Heat Index 88 °F
Dew Point 64 °F
Humidity 47%
Rainfall 0.00 in
Snow Depth Not available.
UV 3 out of 12
Pollen 6.20 out of 12
Air Quality Not available.
Flu Activity Local Activity
METAR KMNI 251955Z AUTO 15004KT 7SM SCT043 OVC065 27/M11 A3027 RMK AO2

More Conditions Fewer Conditions

Pressure 30.27 in
Visibility 7.0 miles
Clouds Scattered Clouds 4300 ft
Overcast 6500 ft
Heat Index 88 °F
Dew Point 64 °F
Humidity 47%
Rainfall 0.00 in
Snow Depth Not available.
UV 3 out of 12
Pollen 6.20 out of 12
Air Quality Not available.
Flu Activity Local Activity
METAR KMNI 251955Z AUTO 15004KT 7SM SCT043 OVC065 27/M11 A3027 RMK AO2

More Conditions Fewer Conditions

10-Day Weather Forecast

Almanac

Astronomy

May. 25, 2015 Rise Set
Actual Time
Civil Twilight
Nautical Twilight
Astronomical Twilight
Moon
Length of Visible Light
Length of Day
Tomorrow will be .
, % of the Moon is Illuminated

Today's Extremes

State Highs State Lows

Community

WunderPhotos

Upload Photos

1,824,117 photos uploaded!

WunderBlogs® & News

Nearby

Air Quality

  Air Quality AQ Index Pollutant
Not available.

Snow Depth

Station Depth Elevation

Earthquake Activity

City Distance Mag. Time & Date
Minimum magnitude displayed is 2.5.

Coastal Water Temperatures

Place Temperature

Stations

Nearby Weather Stations

Station Location Temp. Windchill Dew Point Humidity Wind Precip. Elev Updated Type